sensor_id;sensor_type;location;lat;lon;timestamp;temperature;humidity
16767;DHT22;8501;49.926;8.404;2022-10-16T00:01:17;16.20;99.90
16767;DHT22;8501;49.926;8.404;2022-10-16T00:03:43;16.30;99.90
16767;DHT22;8501;49.926;8.404;2022-10-16T00:06:10;16.30;99.90
16767;DHT22;8501;49.926;8.404;2022-10-16T00:08:36;16.30;99.90
16767;DHT22;8501;49.926;8.404;2022-10-16T00:11:12;16.30;99.90
16767;DHT22;8501;49.926;8.404;2022-10-16T00:13:41;16.40;99.90
16767;DHT22;8501;49.926;8.404;2022-10-16T00:16:07;16.30;99.90
16767;DHT22;8501;49.926;8.404;2022-10-16T00:18:32;16.30;99.90
16767;DHT22;8501;49.926;8.404;2022-10-16T00:21:07;16.30;99.90
16767;DHT22;8501;49.926;8.404;2022-10-16T00:23:34;16.30;99.90
16767;DHT22;8501;49.926;8.404;2022-10-16T00:26:03;16.30;99.90
16767;DHT22;8501;49.926;8.404;2022-10-16T00:28:30;16.30;99.90
16767;DHT22;8501;49.926;8.404;2022-10-16T00:30:56;16.30;99.90
16767;DHT22;8501;49.926;8.404;2022-10-16T00:33:21;16.30;99.90
16767;DHT22;8501;49.926;8.404;2022-10-16T00:35:48;16.30;99.90
16767;DHT22;8501;49.926;8.404;2022-10-16T00:38:14;16.30;99.90
16767;DHT22;8501;49.926;8.404;2022-10-16T00:40:40;16.40;99.90
16767;DHT22;8501;49.926;8.404;2022-10-16T00:43:45;16.30;99.90
16767;DHT22;8501;49.926;8.404;2022-10-16T00:49:28;16.30;99.90
16767;DHT22;8501;49.926;8.404;2022-10-16T00:51:40;16.30;99.90
16767;DHT22;8501;49.926;8.404;2022-10-16T00:54:12;16.30;99.90
16767;DHT22;8501;49.926;8.404;2022-10-16T00:56:39;16.30;99.90
16767;DHT22;8501;49.926;8.404;2022-10-16T00:59:07;16.30;99.90
16767;DHT22;8501;49.926;8.404;2022-10-16T01:01:35;16.30;99.90
16767;DHT22;8501;49.926;8.404;2022-10-16T01:04:01;16.30;99.90
16767;DHT22;8501;49.926;8.404;2022-10-16T01:17:15;16.30;99.90
16767;DHT22;8501;49.926;8.404;2022-10-16T01:22:20;16.30;99.90
16767;DHT22;8501;49.926;8.404;2022-10-16T01:24:49;16.30;99.90
16767;DHT22;8501;49.926;8.404;2022-10-16T01:27:22;16.30;99.90
16767;DHT22;8501;49.926;8.404;2022-10-16T01:35:30;16.30;99.90
16767;DHT22;8501;49.926;8.404;2022-10-16T01:38:04;16.30;99.90
16767;DHT22;8501;49.926;8.404;2022-10-16T01:40:34;16.30;99.90
16767;DHT22;8501;49.926;8.404;2022-10-16T01:45:33;16.30;99.90
16767;DHT22;8501;49.926;8.404;2022-10-16T01:48:01;16.20;99.90
16767;DHT22;8501;49.926;8.404;2022-10-16T01:50:32;16.30;99.90
16767;DHT22;8501;49.926;8.404;2022-10-16T01:52:59;16.20;99.90
16767;DHT22;8501;49.926;8.404;2022-10-16T01:55:31;16.20;99.90
16767;DHT22;8501;49.926;8.404;2022-10-16T01:57:59;16.20;99.90
16767;DHT22;8501;49.926;8.404;2022-10-16T02:00:25;16.20;99.90
16767;DHT22;8501;49.926;8.404;2022-10-16T02:02:53;16.20;99.90
16767;DHT22;8501;49.926;8.404;2022-10-16T02:05:25;16.20;99.90
16767;DHT22;8501;49.926;8.404;2022-10-16T02:07:52;16.20;99.90
16767;DHT22;8501;49.926;8.404;2022-10-16T02:10:18;16.20;99.90
16767;DHT22;8501;49.926;8.404;2022-10-16T02:12:57;16.10;99.90
16767;DHT22;8501;49.926;8.404;2022-10-16T02:15:23;16.20;99.90
16767;DHT22;8501;49.926;8.404;2022-10-16T02:17:49;16.20;99.90
16767;DHT22;8501;49.926;8.404;2022-10-16T02:20:15;16.10;99.90
16767;DHT22;8501;49.926;8.404;2022-10-16T02:22:44;16.10;99.90
16767;DHT22;8501;49.926;8.404;2022-10-16T02:28:05;16.10;99.90
16767;DHT22;8501;49.926;8.404;2022-10-16T02:30:55;16.10;99.90
16767;DHT22;8501;49.926;8.404;2022-10-16T02:33:22;16.10;99.90
16767;DHT22;8501;49.926;8.404;2022-10-16T02:35:51;16.10;99.90
16767;DHT22;8501;49.926;8.404;2022-10-16T02:38:17;16.10;99.90
16767;DHT22;8501;49.926;8.404;2022-10-16T02:40:44;16.10;99.90
16767;DHT22;8501;49.926;8.404;2022-10-16T02:43:10;16.10;99.90
16767;DHT22;8501;49.926;8.404;2022-10-16T02:45:37;16.10;99.90
16767;DHT22;8501;49.926;8.404;2022-10-16T02:48:03;16.00;99.90
16767;DHT22;8501;49.926;8.404;2022-10-16T02:50:28;16.00;99.90
16767;DHT22;8501;49.926;8.404;2022-10-16T02:52:54;16.10;99.90
16767;DHT22;8501;49.926;8.404;2022-10-16T02:55:19;16.00;99.90
16767;DHT22;8501;49.926;8.404;2022-10-16T02:57:45;16.10;99.90
16767;DHT22;8501;49.926;8.404;2022-10-16T03:00:13;16.00;99.90
16767;DHT22;8501;49.926;8.404;2022-10-16T03:02:39;16.10;99.90
16767;DHT22;8501;49.926;8.404;2022-10-16T03:05:05;16.00;99.90
16767;DHT22;8501;49.926;8.404;2022-10-16T03:07:31;16.00;99.90
16767;DHT22;8501;49.926;8.404;2022-10-16T03:09:56;16.00;99.90
16767;DHT22;8501;49.926;8.404;2022-10-16T03:12:26;16.10;99.90
16767;DHT22;8501;49.926;8.404;2022-10-16T03:14:51;16.00;99.90
16767;DHT22;8501;49.926;8.404;2022-10-16T03:17:17;16.00;99.90
16767;DHT22;8501;49.926;8.404;2022-10-16T03:19:42;16.00;99.90
16767;DHT22;8501;49.926;8.404;2022-10-16T03:22:08;16.00;99.90
16767;DHT22;8501;49.926;8.404;2022-10-16T03:24:34;16.00;99.90
16767;DHT22;8501;49.926;8.404;2022-10-16T03:26:59;16.10;99.90
16767;DHT22;8501;49.926;8.404;2022-10-16T03:29:26;16.00;99.90
16767;DHT22;8501;49.926;8.404;2022-10-16T03:31:52;16.00;99.90
16767;DHT22;8501;49.926;8.404;2022-10-16T03:34:18;16.00;99.90
16767;DHT22;8501;49.926;8.404;2022-10-16T03:36:44;16.00;99.90
16767;DHT22;8501;49.926;8.404;2022-10-16T03:39:09;16.00;99.90
16767;DHT22;8501;49.926;8.404;2022-10-16T03:41:35;16.00;99.90
16767;DHT22;8501;49.926;8.404;2022-10-16T03:44:00;16.00;99.90
16767;DHT22;8501;49.926;8.404;2022-10-16T03:46:26;16.00;99.90
16767;DHT22;8501;49.926;8.404;2022-10-16T03:48:51;16.00;99.90
16767;DHT22;8501;49.926;8.404;2022-10-16T03:51:17;16.00;99.90
16767;DHT22;8501;49.926;8.404;2022-10-16T03:53:42;16.00;99.90
16767;DHT22;8501;49.926;8.404;2022-10-16T03:56:08;16.00;99.90
16767;DHT22;8501;49.926;8.404;2022-10-16T03:58:34;16.00;99.90
16767;DHT22;8501;49.926;8.404;2022-10-16T04:00:59;15.90;99.90
16767;DHT22;8501;49.926;8.404;2022-10-16T04:03:25;15.90;99.90
16767;DHT22;8501;49.926;8.404;2022-10-16T04:05:50;16.00;99.90
16767;DHT22;8501;49.926;8.404;2022-10-16T04:08:16;16.00;99.90
16767;DHT22;8501;49.926;8.404;2022-10-16T04:10:45;15.90;99.90
16767;DHT22;8501;49.926;8.404;2022-10-16T04:13:11;15.90;99.90
16767;DHT22;8501;49.926;8.404;2022-10-16T04:15:37;16.00;99.90
16767;DHT22;8501;49.926;8.404;2022-10-16T04:18:03;15.90;99.90
16767;DHT22;8501;49.926;8.404;2022-10-16T04:20:28;16.00;99.90
16767;DHT22;8501;49.926;8.404;2022-10-16T04:22:55;15.90;99.90
16767;DHT22;8501;49.926;8.404;2022-10-16T04:25:21;16.00;99.90
16767;DHT22;8501;49.926;8.404;2022-10-16T04:27:47;16.00;99.90
16767;DHT22;8501;49.926;8.404;2022-10-16T04:30:12;16.00;99.90
16767;DHT22;8501;49.926;8.404;2022-10-16T04:32:38;16.00;99.90
16767;DHT22;8501;49.926;8.404;2022-10-16T04:35:04;15.90;99.90
16767;DHT22;8501;49.926;8.404;2022-10-16T04:37:29;16.00;99.90
16767;DHT22;8501;49.926;8.404;2022-10-16T04:39:55;15.90;99.90
16767;DHT22;8501;49.926;8.404;2022-10-16T04:42:21;16.00;99.90
16767;DHT22;8501;49.926;8.404;2022-10-16T04:44:46;15.90;99.90
16767;DHT22;8501;49.926;8.404;2022-10-16T04:47:12;16.00;99.90
16767;DHT22;8501;49.926;8.404;2022-10-16T04:49:38;16.00;99.90
16767;DHT22;8501;49.926;8.404;2022-10-16T04:52:04;15.90;99.90
16767;DHT22;8501;49.926;8.404;2022-10-16T04:54:30;16.00;99.90
16767;DHT22;8501;49.926;8.404;2022-10-16T04:56:55;16.00;99.90
16767;DHT22;8501;49.926;8.404;2022-10-16T04:59:21;15.90;99.90
16767;DHT22;8501;49.926;8.404;2022-10-16T05:01:47;15.90;99.90
16767;DHT22;8501;49.926;8.404;2022-10-16T05:04:13;15.90;99.90
16767;DHT22;8501;49.926;8.404;2022-10-16T05:06:40;15.90;99.90
16767;DHT22;8501;49.926;8.404;2022-10-16T05:09:06;15.90;99.90
16767;DHT22;8501;49.926;8.404;2022-10-16T05:11:31;15.90;99.90
16767;DHT22;8501;49.926;8.404;2022-10-16T05:13:57;15.90;99.90
16767;DHT22;8501;49.926;8.404;2022-10-16T05:16:22;15.90;99.90
16767;DHT22;8501;49.926;8.404;2022-10-16T05:18:48;15.90;99.90
16767;DHT22;8501;49.926;8.404;2022-10-16T05:21:14;15.90;99.90
16767;DHT22;8501;49.926;8.404;2022-10-16T05:23:39;15.90;99.90
16767;DHT22;8501;49.926;8.404;2022-10-16T05:26:05;15.90;99.90
16767;DHT22;8501;49.926;8.404;2022-10-16T05:28:31;15.90;99.90
16767;DHT22;8501;49.926;8.404;2022-10-16T05:30:57;15.90;99.90
16767;DHT22;8501;49.926;8.404;2022-10-16T05:33:25;15.90;99.90
16767;DHT22;8501;49.926;8.404;2022-10-16T05:35:51;15.90;99.90
16767;DHT22;8501;49.926;8.404;2022-10-16T05:38:17;15.90;99.90
16767;DHT22;8501;49.926;8.404;2022-10-16T05:40:49;15.90;99.90
16767;DHT22;8501;49.926;8.404;2022-10-16T05:43:15;15.90;99.90
16767;DHT22;8501;49.926;8.404;2022-10-16T05:45:40;15.90;99.90
16767;DHT22;8501;49.926;8.404;2022-10-16T05:48:06;15.90;99.90
16767;DHT22;8501;49.926;8.404;2022-10-16T05:50:31;15.90;99.90
16767;DHT22;8501;49.926;8.404;2022-10-16T05:52:57;15.90;99.90
16767;DHT22;8501;49.926;8.404;2022-10-16T05:55:23;15.90;99.90
16767;DHT22;8501;49.926;8.404;2022-10-16T05:57:48;15.90;99.90
16767;DHT22;8501;49.926;8.404;2022-10-16T06:00:14;15.90;99.90
16767;DHT22;8501;49.926;8.404;2022-10-16T06:02:39;15.90;99.90
16767;DHT22;8501;49.926;8.404;2022-10-16T06:05:05;15.90;99.90
16767;DHT22;8501;49.926;8.404;2022-10-16T06:07:34;15.90;99.90
16767;DHT22;8501;49.926;8.404;2022-10-16T06:10:00;15.90;99.90
16767;DHT22;8501;49.926;8.404;2022-10-16T06:12:26;15.90;99.90
16767;DHT22;8501;49.926;8.404;2022-10-16T06:14:52;15.90;99.90
16767;DHT22;8501;49.926;8.404;2022-10-16T06:17:17;15.80;99.90
16767;DHT22;8501;49.926;8.404;2022-10-16T06:19:43;15.90;99.90
16767;DHT22;8501;49.926;8.404;2022-10-16T06:22:09;15.90;99.90
16767;DHT22;8501;49.926;8.404;2022-10-16T06:24:34;15.90;99.90
16767;DHT22;8501;49.926;8.404;2022-10-16T06:27:00;15.90;99.90
16767;DHT22;8501;49.926;8.404;2022-10-16T06:29:26;15.90;99.90
16767;DHT22;8501;49.926;8.404;2022-10-16T06:31:51;15.90;99.90
16767;DHT22;8501;49.926;8.404;2022-10-16T06:34:18;15.90;99.90
16767;DHT22;8501;49.926;8.404;2022-10-16T06:36:43;15.90;99.90
16767;DHT22;8501;49.926;8.404;2022-10-16T06:39:09;15.90;99.90
16767;DHT22;8501;49.926;8.404;2022-10-16T06:41:35;15.90;99.90
16767;DHT22;8501;49.926;8.404;2022-10-16T06:44:00;15.90;99.90
16767;DHT22;8501;49.926;8.404;2022-10-16T06:46:26;15.90;99.90
16767;DHT22;8501;49.926;8.404;2022-10-16T06:48:53;15.90;99.90
16767;DHT22;8501;49.926;8.404;2022-10-16T06:51:21;15.90;99.90
16767;DHT22;8501;49.926;8.404;2022-10-16T06:53:54;15.90;99.90
16767;DHT22;8501;49.926;8.404;2022-10-16T06:56:26;15.90;99.90
16767;DHT22;8501;49.926;8.404;2022-10-16T06:58:53;15.90;99.90
16767;DHT22;8501;49.926;8.404;2022-10-16T07:01:20;15.90;99.90
16767;DHT22;8501;49.926;8.404;2022-10-16T07:03:47;15.90;99.90
16767;DHT22;8501;49.926;8.404;2022-10-16T07:06:15;15.90;99.90
16767;DHT22;8501;49.926;8.404;2022-10-16T07:08:42;15.90;99.90
16767;DHT22;8501;49.926;8.404;2022-10-16T07:11:11;15.90;99.90
16767;DHT22;8501;49.926;8.404;2022-10-16T07:13:38;15.90;99.90
16767;DHT22;8501;49.926;8.404;2022-10-16T07:16:15;15.90;99.90
16767;DHT22;8501;49.926;8.404;2022-10-16T07:18:41;15.90;99.90
16767;DHT22;8501;49.926;8.404;2022-10-16T07:21:10;15.90;99.90
16767;DHT22;8501;49.926;8.404;2022-10-16T07:23:36;15.90;99.90
16767;DHT22;8501;49.926;8.404;2022-10-16T07:26:03;15.90;99.90
16767;DHT22;8501;49.926;8.404;2022-10-16T07:28:28;15.90;99.90
16767;DHT22;8501;49.926;8.404;2022-10-16T07:30:54;16.00;99.90
16767;DHT22;8501;49.926;8.404;2022-10-16T07:33:20;16.00;99.90
16767;DHT22;8501;49.926;8.404;2022-10-16T07:35:53;16.00;99.90
16767;DHT22;8501;49.926;8.404;2022-10-16T07:38:20;16.00;99.90
16767;DHT22;8501;49.926;8.404;2022-10-16T07:40:46;16.00;99.90
16767;DHT22;8501;49.926;8.404;2022-10-16T07:43:12;16.00;99.90
16767;DHT22;8501;49.926;8.404;2022-10-16T07:45:45;16.00;99.90
16767;DHT22;8501;49.926;8.404;2022-10-16T07:48:11;16.00;99.90
16767;DHT22;8501;49.926;8.404;2022-10-16T07:50:37;16.00;99.90
16767;DHT22;8501;49.926;8.404;2022-10-16T07:53:03;16.00;99.90
16767;DHT22;8501;49.926;8.404;2022-10-16T07:55:28;16.00;99.90
16767;DHT22;8501;49.926;8.404;2022-10-16T07:57:54;16.00;99.90
16767;DHT22;8501;49.926;8.404;2022-10-16T08:00:20;16.00;99.90
16767;DHT22;8501;49.926;8.404;2022-10-16T08:02:45;16.00;99.90
16767;DHT22;8501;49.926;8.404;2022-10-16T08:05:11;16.00;99.90
16767;DHT22;8501;49.926;8.404;2022-10-16T08:07:36;16.00;99.90
16767;DHT22;8501;49.926;8.404;2022-10-16T08:10:02;16.00;99.90
16767;DHT22;8501;49.926;8.404;2022-10-16T08:12:28;16.00;99.90
16767;DHT22;8501;49.926;8.404;2022-10-16T08:14:53;16.00;99.90
16767;DHT22;8501;49.926;8.404;2022-10-16T08:17:19;16.00;99.90
16767;DHT22;8501;49.926;8.404;2022-10-16T08:19:48;16.00;99.90
16767;DHT22;8501;49.926;8.404;2022-10-16T08:22:14;16.00;99.90
16767;DHT22;8501;49.926;8.404;2022-10-16T08:24:40;16.00;99.90
16767;DHT22;8501;49.926;8.404;2022-10-16T08:27:06;16.10;99.90
16767;DHT22;8501;49.926;8.404;2022-10-16T08:29:32;16.00;99.90
16767;DHT22;8501;49.926;8.404;2022-10-16T08:31:58;16.10;99.90
16767;DHT22;8501;49.926;8.404;2022-10-16T08:34:23;16.10;99.90
16767;DHT22;8501;49.926;8.404;2022-10-16T08:36:49;16.10;99.90
16767;DHT22;8501;49.926;8.404;2022-10-16T08:39:15;16.10;99.90
16767;DHT22;8501;49.926;8.404;2022-10-16T08:50:38;16.10;99.90
16767;DHT22;8501;49.926;8.404;2022-10-16T08:53:05;16.10;99.90
16767;DHT22;8501;49.926;8.404;2022-10-16T08:55:41;16.20;99.90
16767;DHT22;8501;49.926;8.404;2022-10-16T08:58:16;16.20;99.90
16767;DHT22;8501;49.926;8.404;2022-10-16T09:00:45;16.20;99.90
16767;DHT22;8501;49.926;8.404;2022-10-16T09:05:54;16.20;99.90
16767;DHT22;8501;49.926;8.404;2022-10-16T09:09:02;16.20;99.90
16767;DHT22;8501;49.926;8.404;2022-10-16T09:11:44;16.20;99.90
16767;DHT22;8501;49.926;8.404;2022-10-16T09:16:57;16.30;99.90
16767;DHT22;8501;49.926;8.404;2022-10-16T09:19:44;16.30;99.90
16767;DHT22;8501;49.926;8.404;2022-10-16T09:22:14;16.30;99.90
16767;DHT22;8501;49.926;8.404;2022-10-16T09:24:41;16.30;99.90
16767;DHT22;8501;49.926;8.404;2022-10-16T09:27:14;16.30;99.90
16767;DHT22;8501;49.926;8.404;2022-10-16T09:29:40;16.40;99.90
16767;DHT22;8501;49.926;8.404;2022-10-16T09:32:15;16.40;99.90
16767;DHT22;8501;49.926;8.404;2022-10-16T09:34:45;16.50;99.90
16767;DHT22;8501;49.926;8.404;2022-10-16T09:37:14;16.50;99.90
16767;DHT22;8501;49.926;8.404;2022-10-16T09:39:47;16.50;99.90
16767;DHT22;8501;49.926;8.404;2022-10-16T09:42:28;16.50;99.90
16767;DHT22;8501;49.926;8.404;2022-10-16T09:44:56;16.50;99.90
16767;DHT22;8501;49.926;8.404;2022-10-16T09:47:24;16.50;99.90
16767;DHT22;8501;49.926;8.404;2022-10-16T09:49:56;16.60;99.90
16767;DHT22;8501;49.926;8.404;2022-10-16T09:52:24;16.50;99.90
16767;DHT22;8501;49.926;8.404;2022-10-16T09:54:54;16.50;99.90
16767;DHT22;8501;49.926;8.404;2022-10-16T09:57:20;16.50;99.90
16767;DHT22;8501;49.926;8.404;2022-10-16T09:59:51;16.60;99.90
16767;DHT22;8501;49.926;8.404;2022-10-16T10:02:19;16.60;99.90
16767;DHT22;8501;49.926;8.404;2022-10-16T10:04:51;16.60;99.90
16767;DHT22;8501;49.926;8.404;2022-10-16T10:07:25;16.60;99.90
16767;DHT22;8501;49.926;8.404;2022-10-16T10:09:52;16.60;99.90
16767;DHT22;8501;49.926;8.404;2022-10-16T10:12:29;16.60;99.90
16767;DHT22;8501;49.926;8.404;2022-10-16T10:15:03;16.60;99.90
16767;DHT22;8501;49.926;8.404;2022-10-16T10:17:29;16.70;99.90
16767;DHT22;8501;49.926;8.404;2022-10-16T10:20:00;16.70;99.90
16767;DHT22;8501;49.926;8.404;2022-10-16T10:22:39;16.70;99.90
16767;DHT22;8501;49.926;8.404;2022-10-16T10:33:14;16.80;99.90
16767;DHT22;8501;49.926;8.404;2022-10-16T10:35:48;16.90;99.90
16767;DHT22;8501;49.926;8.404;2022-10-16T10:40:58;17.10;99.90
16767;DHT22;8501;49.926;8.404;2022-10-16T10:55:44;17.50;99.90
16767;DHT22;8501;49.926;8.404;2022-10-16T11:01:04;17.50;99.90
16767;DHT22;8501;49.926;8.404;2022-10-16T11:06:45;17.60;99.90
16767;DHT22;8501;49.926;8.404;2022-10-16T11:11:51;17.70;99.90
16767;DHT22;8501;49.926;8.404;2022-10-16T11:14:26;17.70;99.90
16767;DHT22;8501;49.926;8.404;2022-10-16T11:17:22;17.70;99.90
16767;DHT22;8501;49.926;8.404;2022-10-16T11:22:50;17.70;99.90
16767;DHT22;8501;49.926;8.404;2022-10-16T11:25:31;17.70;99.90
16767;DHT22;8501;49.926;8.404;2022-10-16T11:28:23;17.70;99.90
16767;DHT22;8501;49.926;8.404;2022-10-16T11:31:03;17.70;99.90
16767;DHT22;8501;49.926;8.404;2022-10-16T11:33:39;17.80;99.90
16767;DHT22;8501;49.926;8.404;2022-10-16T11:36:25;17.80;99.90
16767;DHT22;8501;49.926;8.404;2022-10-16T11:39:20;17.90;99.90
16767;DHT22;8501;49.926;8.404;2022-10-16T11:44:38;18.00;99.90
16767;DHT22;8501;49.926;8.404;2022-10-16T11:47:18;18.10;99.90
16767;DHT22;8501;49.926;8.404;2022-10-16T11:49:46;18.30;99.90
16767;DHT22;8501;49.926;8.404;2022-10-16T11:52:49;18.40;99.90
16767;DHT22;8501;49.926;8.404;2022-10-16T11:55:39;18.60;99.90
16767;DHT22;8501;49.926;8.404;2022-10-16T11:58:09;18.60;99.90
16767;DHT22;8501;49.926;8.404;2022-10-16T12:01:33;18.80;99.90
16767;DHT22;8501;49.926;8.404;2022-10-16T12:03:43;18.90;99.90
16767;DHT22;8501;49.926;8.404;2022-10-16T12:08:50;19.00;99.90
16767;DHT22;8501;49.926;8.404;2022-10-16T12:17:04;19.30;99.90
16767;DHT22;8501;49.926;8.404;2022-10-16T12:19:59;19.30;99.90
16767;DHT22;8501;49.926;8.404;2022-10-16T12:22:28;19.30;99.90
16767;DHT22;8501;49.926;8.404;2022-10-16T12:24:54;19.40;99.90
16767;DHT22;8501;49.926;8.404;2022-10-16T12:27:31;19.50;99.90
16767;DHT22;8501;49.926;8.404;2022-10-16T12:30:02;19.60;99.90
16767;DHT22;8501;49.926;8.404;2022-10-16T12:32:36;19.70;99.90
16767;DHT22;8501;49.926;8.404;2022-10-16T12:35:03;19.80;99.90
16767;DHT22;8501;49.926;8.404;2022-10-16T12:37:35;19.80;99.90
16767;DHT22;8501;49.926;8.404;2022-10-16T12:40:26;19.70;99.90
16767;DHT22;8501;49.926;8.404;2022-10-16T12:42:52;19.70;99.90
16767;DHT22;8501;49.926;8.404;2022-10-16T12:45:30;19.70;99.90
16767;DHT22;8501;49.926;8.404;2022-10-16T12:47:58;19.70;99.90
16767;DHT22;8501;49.926;8.404;2022-10-16T12:50:31;19.70;99.90
16767;DHT22;8501;49.926;8.404;2022-10-16T12:52:58;19.70;99.90
16767;DHT22;8501;49.926;8.404;2022-10-16T12:55:24;19.70;99.90
16767;DHT22;8501;49.926;8.404;2022-10-16T12:58:15;19.70;99.90
16767;DHT22;8501;49.926;8.404;2022-10-16T13:01:03;19.70;99.90
16767;DHT22;8501;49.926;8.404;2022-10-16T13:03:54;19.60;99.90
16767;DHT22;8501;49.926;8.404;2022-10-16T13:06:38;19.50;99.90
16767;DHT22;8501;49.926;8.404;2022-10-16T13:23:42;19.40;99.90
16767;DHT22;8501;49.926;8.404;2022-10-16T13:26:34;19.40;99.90
16767;DHT22;8501;49.926;8.404;2022-10-16T13:29:03;19.40;99.90
16767;DHT22;8501;49.926;8.404;2022-10-16T13:31:30;19.40;99.90
16767;DHT22;8501;49.926;8.404;2022-10-16T13:33:58;19.40;99.90
16767;DHT22;8501;49.926;8.404;2022-10-16T13:36:35;19.40;99.90
16767;DHT22;8501;49.926;8.404;2022-10-16T13:39:14;19.40;99.90
16767;DHT22;8501;49.926;8.404;2022-10-16T13:41:40;19.50;99.90
16767;DHT22;8501;49.926;8.404;2022-10-16T13:44:14;19.50;99.90
16767;DHT22;8501;49.926;8.404;2022-10-16T13:46:41;19.50;99.90
16767;DHT22;8501;49.926;8.404;2022-10-16T13:49:15;19.50;99.90
16767;DHT22;8501;49.926;8.404;2022-10-16T13:51:41;19.50;99.90
16767;DHT22;8501;49.926;8.404;2022-10-16T13:54:10;19.50;99.90
16767;DHT22;8501;49.926;8.404;2022-10-16T13:56:39;19.50;99.90
16767;DHT22;8501;49.926;8.404;2022-10-16T13:59:22;19.40;99.90
16767;DHT22;8501;49.926;8.404;2022-10-16T14:01:49;19.50;99.90
16767;DHT22;8501;49.926;8.404;2022-10-16T14:04:16;19.50;99.90
16767;DHT22;8501;49.926;8.404;2022-10-16T14:06:45;19.50;99.90
16767;DHT22;8501;49.926;8.404;2022-10-16T14:09:17;19.50;99.90
16767;DHT22;8501;49.926;8.404;2022-10-16T14:11:49;19.70;99.90
16767;DHT22;8501;49.926;8.404;2022-10-16T14:14:17;19.90;99.90
16767;DHT22;8501;49.926;8.404;2022-10-16T14:16:43;20.10;99.90
16767;DHT22;8501;49.926;8.404;2022-10-16T14:19:18;20.20;99.90
16767;DHT22;8501;49.926;8.404;2022-10-16T14:21:44;20.10;99.90
16767;DHT22;8501;49.926;8.404;2022-10-16T14:24:33;20.10;99.90
16767;DHT22;8501;49.926;8.404;2022-10-16T14:26:59;20.30;99.90
16767;DHT22;8501;49.926;8.404;2022-10-16T14:29:27;20.10;99.90
16767;DHT22;8501;49.926;8.404;2022-10-16T14:32:24;20.00;99.90
16767;DHT22;8501;49.926;8.404;2022-10-16T14:34:54;19.90;99.90
16767;DHT22;8501;49.926;8.404;2022-10-16T14:37:29;19.80;99.90
16767;DHT22;8501;49.926;8.404;2022-10-16T14:39:56;19.90;99.90
16767;DHT22;8501;49.926;8.404;2022-10-16T14:42:24;20.20;99.90
16767;DHT22;8501;49.926;8.404;2022-10-16T14:44:51;20.20;99.90
16767;DHT22;8501;49.926;8.404;2022-10-16T14:47:23;20.10;99.90
16767;DHT22;8501;49.926;8.404;2022-10-16T14:49:53;20.00;99.90
16767;DHT22;8501;49.926;8.404;2022-10-16T14:52:20;19.90;99.90
16767;DHT22;8501;49.926;8.404;2022-10-16T14:54:49;19.90;99.90
16767;DHT22;8501;49.926;8.404;2022-10-16T14:57:23;19.80;99.90
16767;DHT22;8501;49.926;8.404;2022-10-16T14:59:50;19.80;99.90
16767;DHT22;8501;49.926;8.404;2022-10-16T15:04:49;19.70;99.90
16767;DHT22;8501;49.926;8.404;2022-10-16T15:07:15;19.70;99.90
16767;DHT22;8501;49.926;8.404;2022-10-16T15:09:41;19.70;99.90
16767;DHT22;8501;49.926;8.404;2022-10-16T15:12:06;19.70;99.90
16767;DHT22;8501;49.926;8.404;2022-10-16T15:14:32;19.70;99.90
16767;DHT22;8501;49.926;8.404;2022-10-16T15:16:57;19.70;99.90
16767;DHT22;8501;49.926;8.404;2022-10-16T15:19:23;19.80;99.90
16767;DHT22;8501;49.926;8.404;2022-10-16T15:21:48;19.80;99.90
16767;DHT22;8501;49.926;8.404;2022-10-16T15:24:15;19.80;99.90
16767;DHT22;8501;49.926;8.404;2022-10-16T15:26:40;19.70;99.90
16767;DHT22;8501;49.926;8.404;2022-10-16T15:29:06;19.80;99.90
16767;DHT22;8501;49.926;8.404;2022-10-16T15:31:32;19.80;99.90
16767;DHT22;8501;49.926;8.404;2022-10-16T15:33:58;19.70;99.90
16767;DHT22;8501;49.926;8.404;2022-10-16T15:36:34;19.70;99.90
16767;DHT22;8501;49.926;8.404;2022-10-16T15:39:03;19.70;99.90
16767;DHT22;8501;49.926;8.404;2022-10-16T15:41:28;19.60;99.90
16767;DHT22;8501;49.926;8.404;2022-10-16T15:43:54;19.60;99.90
16767;DHT22;8501;49.926;8.404;2022-10-16T15:46:22;19.60;99.90
16767;DHT22;8501;49.926;8.404;2022-10-16T15:48:49;19.60;99.90
16767;DHT22;8501;49.926;8.404;2022-10-16T15:51:15;19.60;99.90
16767;DHT22;8501;49.926;8.404;2022-10-16T15:53:41;19.60;99.90
16767;DHT22;8501;49.926;8.404;2022-10-16T15:56:09;19.60;99.90
16767;DHT22;8501;49.926;8.404;2022-10-16T15:58:36;19.60;99.90
16767;DHT22;8501;49.926;8.404;2022-10-16T16:01:02;19.60;99.90
16767;DHT22;8501;49.926;8.404;2022-10-16T16:03:29;19.50;99.90
16767;DHT22;8501;49.926;8.404;2022-10-16T16:05:55;19.60;99.90
16767;DHT22;8501;49.926;8.404;2022-10-16T16:08:21;19.50;99.90
16767;DHT22;8501;49.926;8.404;2022-10-16T16:11:12;19.50;99.90
16767;DHT22;8501;49.926;8.404;2022-10-16T16:13:39;19.50;99.90
16767;DHT22;8501;49.926;8.404;2022-10-16T16:16:10;19.50;99.90
16767;DHT22;8501;49.926;8.404;2022-10-16T16:18:36;19.50;99.90
16767;DHT22;8501;49.926;8.404;2022-10-16T16:21:03;19.50;99.90
16767;DHT22;8501;49.926;8.404;2022-10-16T16:23:28;19.40;99.90
16767;DHT22;8501;49.926;8.404;2022-10-16T16:26:22;19.40;99.90
16767;DHT22;8501;49.926;8.404;2022-10-16T16:28:51;19.40;99.90
16767;DHT22;8501;49.926;8.404;2022-10-16T16:31:17;19.40;99.90
16767;DHT22;8501;49.926;8.404;2022-10-16T16:33:43;19.40;99.90
16767;DHT22;8501;49.926;8.404;2022-10-16T16:36:10;19.30;99.90
16767;DHT22;8501;49.926;8.404;2022-10-16T16:38:36;19.30;99.90
16767;DHT22;8501;49.926;8.404;2022-10-16T16:41:12;19.30;99.90
16767;DHT22;8501;49.926;8.404;2022-10-16T16:43:38;19.20;99.90
16767;DHT22;8501;49.926;8.404;2022-10-16T16:46:04;19.30;99.90
16767;DHT22;8501;49.926;8.404;2022-10-16T16:48:29;19.20;99.90
16767;DHT22;8501;49.926;8.404;2022-10-16T16:50:55;19.20;99.90
16767;DHT22;8501;49.926;8.404;2022-10-16T16:53:21;19.20;99.90
16767;DHT22;8501;49.926;8.404;2022-10-16T16:55:48;19.20;99.90
16767;DHT22;8501;49.926;8.404;2022-10-16T16:58:13;19.10;99.90
16767;DHT22;8501;49.926;8.404;2022-10-16T17:00:45;19.10;99.90
16767;DHT22;8501;49.926;8.404;2022-10-16T17:03:11;19.10;99.90
16767;DHT22;8501;49.926;8.404;2022-10-16T17:05:36;19.10;99.90
16767;DHT22;8501;49.926;8.404;2022-10-16T17:08:02;19.10;99.90
16767;DHT22;8501;49.926;8.404;2022-10-16T17:10:27;19.10;99.90
16767;DHT22;8501;49.926;8.404;2022-10-16T17:12:53;19.10;99.90
16767;DHT22;8501;49.926;8.404;2022-10-16T17:15:18;19.00;99.90
16767;DHT22;8501;49.926;8.404;2022-10-16T17:17:44;19.10;99.90
16767;DHT22;8501;49.926;8.404;2022-10-16T17:20:09;19.00;99.90
16767;DHT22;8501;49.926;8.404;2022-10-16T17:22:35;19.00;99.90
16767;DHT22;8501;49.926;8.404;2022-10-16T17:25:01;19.00;99.90
16767;DHT22;8501;49.926;8.404;2022-10-16T17:27:29;19.00;99.90
16767;DHT22;8501;49.926;8.404;2022-10-16T17:29:54;18.90;99.90
16767;DHT22;8501;49.926;8.404;2022-10-16T17:32:20;18.90;99.90
16767;DHT22;8501;49.926;8.404;2022-10-16T17:34:46;18.90;99.90
16767;DHT22;8501;49.926;8.404;2022-10-16T17:37:11;18.90;99.90
16767;DHT22;8501;49.926;8.404;2022-10-16T17:39:37;18.80;99.90
16767;DHT22;8501;49.926;8.404;2022-10-16T17:42:02;18.80;99.90